createdAt,value
2023-05-03T00:01:47.708Z,86.13
2023-05-03T00:03:48.080Z,86.27
2023-05-03T00:05:48.410Z,86.06
2023-05-03T00:07:48.694Z,85.96
2023-05-03T00:09:48.964Z,85.82
2023-05-03T00:11:49.384Z,85.61
2023-05-03T00:13:49.625Z,85.61
2023-05-03T00:15:49.946Z,85.55
2023-05-03T00:17:50.232Z,85.44
2023-05-03T00:19:50.628Z,85.55
2023-05-03T00:21:50.906Z,85.75
2023-05-03T00:23:51.195Z,85.75
2023-05-03T00:25:51.609Z,85.86
2023-05-03T00:27:51.890Z,85.86
2023-05-03T00:29:52.195Z,85.96
2023-05-03T00:31:52.462Z,86.21
2023-05-03T00:33:52.915Z,86.52
2023-05-03T00:35:53.161Z,86.41
2023-05-03T00:37:53.457Z,86.41
2023-05-03T00:39:53.747Z,86.72
2023-05-03T00:41:54.164Z,87.03
2023-05-03T00:43:54.473Z,87.07
2023-05-03T00:45:59.398Z,87.07
2023-05-03T00:47:59.963Z,87.27
2023-05-03T00:50:00.507Z,87.38
2023-05-03T00:52:00.923Z,87.38
2023-05-03T00:54:01.193Z,87.59
2023-05-03T00:56:01.621Z,87.69
2023-05-03T00:58:01.901Z,87.79
2023-05-03T01:00:02.301Z,87.69
2023-05-03T01:02:02.746Z,87.83
2023-05-03T01:04:03.306Z,87.73
2023-05-03T01:06:03.688Z,87.73
2023-05-03T01:08:03.963Z,87.93
2023-05-03T01:10:04.592Z,88.24
2023-05-03T01:12:05.145Z,88.35
2023-05-03T01:14:05.428Z,88.76
2023-05-03T01:16:05.724Z,88.90
2023-05-03T01:18:06.112Z,89.01
2023-05-03T01:20:06.637Z,89.22
2023-05-03T01:22:06.977Z,89.32
2023-05-03T01:24:07.377Z,89.42
2023-05-03T01:26:07.641Z,89.62
2023-05-03T01:28:07.928Z,89.77
2023-05-03T01:30:08.228Z,89.77
2023-05-03T01:32:08.539Z,89.87
2023-05-03T01:34:08.964Z,90.08
2023-05-03T01:36:09.243Z,89.98
2023-05-03T01:38:09.530Z,89.98
2023-05-03T01:40:09.839Z,89.87
2023-05-03T01:42:10.236Z,89.81
2023-05-03T01:44:10.501Z,89.77
2023-05-03T01:46:10.876Z,89.67
2023-05-03T01:48:11.203Z,89.71
2023-05-03T01:50:11.624Z,89.46
2023-05-03T01:52:11.877Z,89.19
2023-05-03T01:54:12.208Z,89.19
2023-05-03T01:56:12.488Z,89.09
2023-05-03T01:58:12.888Z,89.19
2023-05-03T02:00:13.172Z,88.89
2023-05-03T02:02:13.483Z,89.09
2023-05-03T02:04:13.814Z,89.09
2023-05-03T02:06:14.249Z,89.19
2023-05-03T02:08:14.510Z,89.09
2023-05-03T02:10:14.962Z,89.09
2023-05-03T02:12:15.337Z,88.98
2023-05-03T02:14:15.721Z,88.89
2023-05-03T02:16:16.024Z,88.98
2023-05-03T02:18:16.305Z,88.89
2023-05-03T02:20:16.575Z,88.89
2023-05-03T02:22:16.990Z,88.78
2023-05-03T02:24:17.257Z,88.89
2023-05-03T02:26:17.595Z,88.82
2023-05-03T02:28:17.880Z,88.92
2023-05-03T02:30:18.284Z,88.82
2023-05-03T02:32:18.537Z,88.57
2023-05-03T02:34:18.941Z,88.68
2023-05-03T02:36:19.245Z,88.57
2023-05-03T02:38:19.523Z,88.61
2023-05-03T02:40:19.792Z,88.82
2023-05-03T02:42:20.244Z,89.03
2023-05-03T02:44:20.525Z,89.03
2023-05-03T02:46:20.954Z,89.13
2023-05-03T02:48:21.192Z,89.13
2023-05-03T02:50:21.529Z,89.03
2023-05-03T02:52:21.821Z,89.13
2023-05-03T02:54:22.259Z,89.03
2023-05-03T02:56:22.510Z,89.34
2023-05-03T02:58:22.946Z,89.23
2023-05-03T03:00:23.218Z,89.28
2023-05-03T03:02:23.655Z,89.38
2023-05-03T03:04:23.978Z,89.44
2023-05-03T03:06:24.537Z,89.48
2023-05-03T03:08:24.828Z,89.38
2023-05-03T03:10:25.155Z,89.13
2023-05-03T03:12:25.450Z,89.13
2023-05-03T03:14:25.885Z,89.17
2023-05-03T03:16:26.172Z,89.07
2023-05-03T03:18:26.466Z,89.07
2023-05-03T03:20:26.758Z,88.96
2023-05-03T03:22:27.168Z,89.17
2023-05-03T03:24:27.421Z,89.17
2023-05-03T03:26:27.762Z,89.03
2023-05-03T03:28:28.058Z,89.13
2023-05-03T03:30:28.407Z,89.17
2023-05-03T03:32:28.721Z,89.07
2023-05-03T03:34:29.121Z,89.07
2023-05-03T03:36:29.441Z,89.07
2023-05-03T03:38:29.694Z,89.07
2023-05-03T03:40:30.001Z,89.07
2023-05-03T03:42:30.313Z,89.07
2023-05-03T03:44:30.579Z,89.22
2023-05-03T03:46:31.018Z,89.32
2023-05-03T03:48:31.344Z,89.42
2023-05-03T03:50:31.858Z,89.52
2023-05-03T03:52:32.138Z,89.83
2023-05-03T03:54:32.398Z,89.94
2023-05-03T03:56:32.694Z,90.14
2023-05-03T03:58:33.133Z,90.25
2023-05-03T04:00:33.368Z,90.35
2023-05-03T04:02:33.807Z,90.50
2023-05-03T04:04:34.286Z,90.66
2023-05-03T04:06:34.810Z,90.77
2023-05-03T04:08:35.147Z,90.87
2023-05-03T04:10:35.437Z,90.66
2023-05-03T04:12:35.732Z,90.35
2023-05-03T04:14:36.142Z,90.25
2023-05-03T04:16:36.425Z,90.04
2023-05-03T04:18:36.705Z,90.04
2023-05-03T04:20:37.014Z,90.14
2023-05-03T04:22:37.422Z,90.04
2023-05-03T04:24:37.695Z,90.14
2023-05-03T04:26:38.017Z,90.35
2023-05-03T04:28:38.276Z,90.56
2023-05-03T04:30:38.642Z,90.35
2023-05-03T04:32:38.974Z,90.35
2023-05-03T04:34:39.235Z,89.94
2023-05-03T04:36:39.571Z,89.62
2023-05-03T04:38:39.951Z,89.83
2023-05-03T04:40:40.232Z,89.59
2023-05-03T04:42:40.531Z,89.48
2023-05-03T04:44:40.851Z,89.28
2023-05-03T04:46:41.370Z,89.38
2023-05-03T04:48:41.682Z,89.13
2023-05-03T04:50:41.995Z,88.92
2023-05-03T04:52:42.312Z,88.71
2023-05-03T04:54:42.700Z,88.68
2023-05-03T04:56:42.956Z,88.37
2023-05-03T04:58:43.239Z,88.37
2023-05-03T05:00:43.580Z,88.32
2023-05-03T05:02:43.938Z,88.12
2023-05-03T05:04:45.331Z,87.92
2023-05-03T05:06:45.738Z,88.08
2023-05-03T05:08:46.168Z,87.87
2023-05-03T05:10:46.440Z,87.26
2023-05-03T05:12:46.753Z,86.80
2023-05-03T05:14:47.024Z,86.90
2023-05-03T05:16:47.562Z,87.01
2023-05-03T05:18:48.617Z,86.66
2023-05-03T05:20:48.939Z,86.04
2023-05-03T05:22:49.244Z,86.15
2023-05-03T05:24:49.640Z,86.00
2023-05-03T05:26:49.933Z,85.89
2023-05-03T05:28:50.241Z,86.00
2023-05-03T05:30:50.544Z,85.79
2023-05-03T05:32:50.870Z,86.10
2023-05-03T05:34:51.116Z,85.79
2023-05-03T05:36:51.465Z,85.59
2023-05-03T05:38:51.778Z,85.49
2023-05-03T05:40:52.109Z,85.69
2023-05-03T05:42:52.399Z,85.69
2023-05-03T05:44:52.701Z,85.49
2023-05-03T05:46:53.000Z,85.59
2023-05-03T05:48:53.316Z,85.55
2023-05-03T05:50:53.622Z,84.83
2023-05-03T05:52:53.916Z,84.72
2023-05-03T05:54:54.195Z,84.58
2023-05-03T05:56:54.567Z,83.86
2023-05-03T05:58:54.801Z,83.92
2023-05-03T06:00:55.082Z,83.11
2023-05-03T06:02:55.424Z,82.55
2023-05-03T06:05:00.658Z,82.14
2023-05-03T06:07:00.926Z,80.91
2023-05-03T06:09:04.770Z,81.21
2023-05-03T06:11:06.565Z,81.93
2023-05-03T06:13:06.871Z,81.28
2023-05-03T06:15:07.160Z,80.25
2023-05-03T06:17:07.494Z,80.97
2023-05-03T06:19:07.811Z,80.15
2023-05-03T06:21:08.123Z,80.05
2023-05-03T06:23:08.423Z,80.63
2023-05-03T06:25:08.893Z,81.04
2023-05-03T06:27:09.165Z,79.70
2023-05-03T06:29:09.486Z,79.56
2023-05-03T06:31:09.759Z,79.46
2023-05-03T06:33:10.188Z,80.07
2023-05-03T06:35:10.487Z,79.32
2023-05-03T06:37:10.770Z,78.81
2023-05-03T06:39:11.060Z,79.32
2023-05-03T06:41:11.406Z,78.16
2023-05-03T06:43:11.664Z,79.28
2023-05-03T06:45:12.058Z,78.56
2023-05-03T06:47:12.414Z,77.54
2023-05-03T06:49:12.685Z,78.05
2023-05-03T06:51:13.013Z,78.63
2023-05-03T06:53:13.307Z,77.29
2023-05-03T06:55:13.718Z,77.06
2023-05-03T06:57:13.985Z,75.28
2023-05-03T06:59:14.277Z,74.73
2023-05-03T07:01:14.616Z,76.43
2023-05-03T07:03:14.988Z,75.17
2023-05-03T07:05:15.274Z,73.20
2023-05-03T07:07:15.719Z,72.55
2023-05-03T07:09:16.049Z,73.36
2023-05-03T07:11:16.467Z,71.94
2023-05-03T07:13:16.730Z,72.86
2023-05-03T07:15:17.029Z,71.80
2023-05-03T07:17:17.331Z,71.63
2023-05-03T07:19:17.703Z,72.45
2023-05-03T07:21:17.978Z,73.94
2023-05-03T07:23:18.278Z,72.41
2023-05-03T07:25:18.594Z,71.26
2023-05-03T07:27:18.958Z,70.44
2023-05-03T07:29:19.190Z,70.44
2023-05-03T07:31:19.500Z,70.61
2023-05-03T07:33:19.896Z,70.00
2023-05-03T07:35:20.352Z,69.38
2023-05-03T07:37:20.614Z,69.49
2023-05-03T07:39:20.878Z,70.37
2023-05-03T07:41:21.190Z,69.90
2023-05-03T07:43:21.517Z,69.18
2023-05-03T07:45:21.858Z,69.38
2023-05-03T07:47:22.123Z,68.84
2023-05-03T07:49:22.499Z,68.33
2023-05-03T07:51:22.764Z,68.71
2023-05-03T07:53:23.046Z,68.27
2023-05-03T07:55:23.396Z,68.04
2023-05-03T07:57:23.691Z,66.71
2023-05-03T07:59:23.971Z,67.19
2023-05-03T08:01:24.301Z,67.26
2023-05-03T08:03:24.746Z,66.82
2023-05-03T08:05:25.270Z,65.97
2023-05-03T08:07:25.632Z,64.86
2023-05-03T08:09:25.904Z,64.32
2023-05-03T08:11:26.218Z,63.84
2023-05-03T08:13:26.504Z,63.81
2023-05-03T08:15:26.819Z,63.54
2023-05-03T08:17:27.147Z,64.15
2023-05-03T08:19:27.445Z,63.94
2023-05-03T08:21:27.783Z,63.84
2023-05-03T08:23:28.063Z,64.86
2023-05-03T08:25:28.352Z,63.81
2023-05-03T08:27:28.640Z,63.68
2023-05-03T08:29:28.948Z,64.49
2023-05-03T08:31:29.265Z,64.36
2023-05-03T08:33:29.582Z,64.06
2023-05-03T08:35:29.901Z,64.67
2023-05-03T08:37:30.234Z,64.09
2023-05-03T08:39:30.500Z,64.59
2023-05-03T08:41:31.152Z,64.29
2023-05-03T08:43:31.427Z,63.20
2023-05-03T08:45:31.880Z,65.23
2023-05-03T08:47:32.199Z,63.28
2023-05-03T08:49:32.467Z,64.36
2023-05-03T08:51:32.765Z,64.53
2023-05-03T08:53:33.115Z,64.73
2023-05-03T08:55:33.371Z,63.49
2023-05-03T08:57:33.695Z,61.97
2023-05-03T08:59:33.973Z,62.37
2023-05-03T09:01:34.450Z,61.36
2023-05-03T09:03:34.945Z,61.53
2023-05-03T09:05:35.355Z,62.04
2023-05-03T09:07:35.646Z,62.45
2023-05-03T09:09:36.027Z,62.24
2023-05-03T09:11:36.303Z,62.48
2023-05-03T09:13:36.618Z,62.48
2023-05-03T09:15:36.894Z,62.20
2023-05-03T09:17:37.329Z,62.20
2023-05-03T09:19:37.660Z,62.10
2023-05-03T09:21:37.939Z,62.40
2023-05-03T09:23:38.269Z,62.20
2023-05-03T09:25:39.004Z,62.30
2023-05-03T09:27:39.257Z,62.07
2023-05-03T09:29:39.549Z,62.95
2023-05-03T09:31:39.861Z,62.54
2023-05-03T09:33:40.265Z,62.04
2023-05-03T09:35:40.547Z,63.06
2023-05-03T09:37:40.832Z,62.85
2023-05-03T09:39:41.128Z,62.04
2023-05-03T09:41:41.463Z,64.00
2023-05-03T09:43:41.736Z,63.49
2023-05-03T09:45:42.090Z,64.30
2023-05-03T09:47:42.417Z,63.46
2023-05-03T09:49:42.758Z,62.24
2023-05-03T09:51:43.031Z,61.83
2023-05-03T09:53:43.358Z,63.93
2023-05-03T09:55:43.636Z,62.82
2023-05-03T09:57:43.997Z,61.58
2023-05-03T09:59:44.293Z,61.07
2023-05-03T10:01:44.652Z,63.40
2023-05-03T10:03:45.026Z,62.69
2023-05-03T10:05:45.429Z,61.68
2023-05-03T10:07:45.703Z,64.48
2023-05-03T10:09:45.989Z,62.66
2023-05-03T10:11:46.286Z,61.11
2023-05-03T10:13:46.716Z,61.01
2023-05-03T10:15:46.998Z,62.30
2023-05-03T10:17:48.597Z,61.11
2023-05-03T10:19:49.054Z,61.79
2023-05-03T10:21:49.413Z,60.98
2023-05-03T10:23:49.697Z,59.47
2023-05-03T10:25:49.971Z,58.86
2023-05-03T10:27:50.244Z,61.69
2023-05-03T10:29:50.756Z,58.83
2023-05-03T10:31:51.128Z,58.00
2023-05-03T10:33:51.424Z,59.41
2023-05-03T10:35:51.725Z,58.37
2023-05-03T10:37:52.010Z,58.27
2023-05-03T10:39:52.320Z,57.67
2023-05-03T10:41:52.649Z,57.36
2023-05-03T10:43:53.046Z,56.76
2023-05-03T10:45:53.377Z,57.87
2023-05-03T10:47:53.671Z,57.76
2023-05-03T10:49:53.974Z,56.76
2023-05-03T10:51:54.250Z,57.64
2023-05-03T10:53:54.537Z,56.50
2023-05-03T10:55:54.832Z,57.61
2023-05-03T10:57:55.144Z,57.35
2023-05-03T10:59:55.390Z,54.30
2023-05-03T11:01:55.889Z,54.94
2023-05-03T11:03:56.295Z,55.64
2023-05-03T11:05:56.638Z,55.24
2023-05-03T11:07:57.174Z,55.82
2023-05-03T11:09:57.657Z,54.43
2023-05-03T11:11:57.958Z,55.14
2023-05-03T11:13:58.316Z,54.30
2023-05-03T11:15:58.660Z,54.41
2023-05-03T11:17:59.030Z,54.50
2023-05-03T11:19:59.298Z,53.90
2023-05-03T11:21:59.631Z,54.08
2023-05-03T11:23:59.900Z,55.96
2023-05-03T11:26:00.191Z,52.82
2023-05-03T11:28:00.524Z,52.22
2023-05-03T11:30:00.802Z,53.20
2023-05-03T11:32:01.140Z,53.90
2023-05-03T11:34:01.447Z,51.06
2023-05-03T11:36:01.695Z,50.53
2023-05-03T11:38:02.001Z,50.15
2023-05-03T11:40:02.342Z,50.66
2023-05-03T11:42:02.663Z,50.96
2023-05-03T11:44:15.247Z,51.04
2023-05-03T11:46:08.236Z,50.79
2023-05-03T11:48:08.656Z,48.88
2023-05-03T11:50:09.005Z,47.97
2023-05-03T11:52:09.381Z,47.77
2023-05-03T11:54:20.995Z,47.85
2023-05-03T11:56:14.880Z,49.40
2023-05-03T11:58:15.298Z,50.03
2023-05-03T12:00:15.599Z,52.62
2023-05-03T12:02:15.988Z,51.69
2023-05-03T12:04:16.554Z,51.46
2023-05-03T12:06:17.894Z,48.16
2023-05-03T12:08:20.246Z,51.14
2023-05-03T12:10:25.845Z,49.04
2023-05-03T12:12:30.750Z,47.81
2023-05-03T12:14:33.062Z,47.61
2023-05-03T12:16:34.373Z,46.50
2023-05-03T12:18:35.095Z,49.31
2023-05-03T12:22:39.209Z,49.57
2023-05-03T12:24:39.864Z,46.36
2023-05-03T12:26:42.171Z,48.99
2023-05-03T12:28:42.825Z,46.48
2023-05-03T12:30:45.844Z,48.58
2023-05-03T12:32:46.701Z,47.58
2023-05-03T12:34:47.313Z,46.06
2023-05-03T12:36:49.170Z,48.46
2023-05-03T12:38:50.702Z,49.94
2023-05-03T12:40:51.098Z,44.54
2023-05-03T12:42:51.506Z,44.34
2023-05-03T12:44:53.604Z,46.46
2023-05-03T12:46:54.150Z,46.06
2023-05-03T12:48:54.846Z,46.86
2023-05-03T12:51:17.625Z,46.66
2023-05-03T12:53:08.449Z,47.84
2023-05-03T12:55:11.550Z,45.26
2023-05-03T12:57:15.425Z,49.64
2023-05-03T13:03:23.185Z,45.15
2023-05-03T13:05:34.684Z,43.48
2023-05-03T13:07:30.482Z,44.70
2023-05-03T13:10:12.246Z,46.51
2023-05-03T13:11:37.102Z,46.31
2023-05-03T13:13:37.397Z,45.29
2023-05-03T13:15:37.726Z,47.39
2023-05-03T13:17:38.050Z,46.30
2023-05-03T13:19:38.495Z,45.69
2023-05-03T13:21:38.883Z,48.27
2023-05-03T13:23:39.288Z,47.47
2023-05-03T13:25:39.687Z,44.35
2023-05-03T13:27:40.082Z,45.03
2023-05-03T13:29:40.400Z,45.23
2023-05-03T13:31:40.804Z,44.03
2023-05-03T13:33:41.189Z,42.21
2023-05-03T13:35:41.614Z,41.50
2023-05-03T13:37:41.867Z,42.11
2023-05-03T13:39:42.162Z,42.61
2023-05-03T13:41:42.495Z,42.95
2023-05-03T13:43:42.914Z,41.25
2023-05-03T13:45:43.172Z,42.76
2023-05-03T13:48:04.695Z,42.83
2023-05-03T13:49:48.688Z,41.82
2023-05-03T13:51:49.096Z,43.43
2023-05-03T13:53:49.350Z,44.53
2023-05-03T13:55:49.633Z,41.41
2023-05-03T13:57:49.965Z,43.49
2023-05-03T13:59:50.295Z,42.37
2023-05-03T14:01:50.716Z,41.25
2023-05-03T14:03:51.019Z,40.92
2023-05-03T14:05:51.351Z,41.63
2023-05-03T14:07:51.704Z,43.83
2023-05-03T14:09:52.002Z,42.81
2023-05-03T14:11:53.022Z,42.11
2023-05-03T14:13:56.306Z,45.10
2023-05-03T14:15:57.678Z,42.10
2023-05-03T14:18:01.282Z,42.41
2023-05-03T14:20:03.276Z,43.19
2023-05-03T14:22:03.709Z,41.02
2023-05-03T14:24:04.036Z,43.41
2023-05-03T14:26:04.355Z,41.91
2023-05-03T14:28:04.663Z,41.60
2023-05-03T14:30:05.257Z,40.78
2023-05-03T14:32:05.928Z,40.68
2023-05-03T14:34:06.226Z,39.78
2023-05-03T14:36:06.525Z,40.68
2023-05-03T14:38:06.805Z,40.36
2023-05-03T14:40:07.486Z,40.08
2023-05-03T14:42:08.168Z,42.57
2023-05-03T14:44:08.485Z,41.36
2023-05-03T14:46:08.818Z,41.46
2023-05-03T14:48:09.221Z,40.84
2023-05-03T14:50:09.542Z,40.06
2023-05-03T14:52:09.895Z,40.68
2023-05-03T14:54:10.140Z,40.10
2023-05-03T14:56:10.462Z,43.11
2023-05-03T14:58:10.782Z,41.99
2023-05-03T15:00:11.044Z,42.79
2023-05-03T15:02:11.443Z,42.18
2023-05-03T15:04:11.739Z,39.50
2023-05-03T15:06:12.023Z,42.49
2023-05-03T15:08:12.332Z,42.40
2023-05-03T15:10:12.718Z,41.82
2023-05-03T15:12:13.024Z,39.84
2023-05-03T15:14:13.364Z,41.61
2023-05-03T15:16:13.693Z,40.80
2023-05-03T15:18:14.005Z,42.67
2023-05-03T15:20:14.353Z,39.58
2023-05-03T15:22:14.649Z,42.05
2023-05-03T15:24:15.070Z,39.84
2023-05-03T15:26:15.396Z,37.83
2023-05-03T15:28:15.748Z,36.74
2023-05-03T15:30:16.121Z,37.88
2023-05-03T15:32:16.411Z,38.80
2023-05-03T15:34:16.723Z,39.08
2023-05-03T15:36:17.088Z,38.27
2023-05-03T15:38:17.418Z,37.55
2023-05-03T15:40:17.675Z,36.87
2023-05-03T15:42:18.000Z,38.86
2023-05-03T15:44:18.307Z,37.87
2023-05-03T15:46:18.618Z,38.17
2023-05-03T15:48:19.139Z,37.67
2023-05-03T15:50:19.417Z,37.45
2023-05-03T15:52:19.731Z,37.35
2023-05-03T15:54:20.060Z,36.16
2023-05-03T15:56:20.366Z,37.95
2023-05-03T15:58:20.681Z,38.45
2023-05-03T16:00:21.011Z,38.13
2023-05-03T16:02:21.309Z,36.62
2023-05-03T16:04:21.648Z,35.99
2023-05-03T16:06:21.896Z,35.97
2023-05-03T16:08:22.337Z,35.85
2023-05-03T16:10:24.767Z,36.27
2023-05-03T16:12:25.472Z,35.77
2023-05-03T16:14:25.822Z,35.66
2023-05-03T16:16:26.193Z,34.94
2023-05-03T16:18:26.518Z,34.17
2023-05-03T16:20:26.816Z,36.68
2023-05-03T16:22:27.113Z,37.12
2023-05-03T16:24:27.432Z,38.28
2023-05-03T16:26:27.797Z,37.96
2023-05-03T16:28:28.113Z,37.99
2023-05-03T16:30:28.418Z,39.14
2023-05-03T16:32:28.753Z,38.48
2023-05-03T16:34:29.025Z,40.00
2023-05-03T16:36:29.307Z,39.13
2023-05-03T16:38:29.624Z,34.41
2023-05-03T16:40:29.983Z,37.60
2023-05-03T16:42:30.263Z,35.67
2023-05-03T16:44:30.583Z,35.21
2023-05-03T16:46:30.942Z,33.20
2023-05-03T16:48:31.193Z,32.09
2023-05-03T16:50:31.457Z,33.85
2023-05-03T16:52:31.787Z,33.46
2023-05-03T16:54:32.056Z,33.56
2023-05-03T16:56:32.485Z,36.65
2023-05-03T16:58:33.535Z,35.54
2023-05-03T17:00:33.922Z,36.02
2023-05-03T17:02:34.475Z,36.63
2023-05-03T17:04:34.896Z,37.74
2023-05-03T17:06:35.229Z,37.18
2023-05-03T17:08:35.540Z,37.76
2023-05-03T17:10:35.840Z,38.37
2023-05-03T17:12:36.210Z,40.12
2023-05-03T17:14:36.532Z,42.19
2023-05-03T17:16:36.861Z,41.67
2023-05-03T17:18:37.150Z,43.90
2023-05-03T17:20:37.428Z,44.47
2023-05-03T17:22:37.768Z,44.75
2023-05-03T17:24:38.057Z,45.57
2023-05-03T17:26:38.355Z,43.62
2023-05-03T17:28:38.690Z,42.24
2023-05-03T17:30:38.938Z,42.66
2023-05-03T17:32:39.362Z,42.77
2023-05-03T17:34:39.698Z,45.92
2023-05-03T17:36:39.988Z,47.77
2023-05-03T17:38:40.291Z,47.00
2023-05-03T17:40:40.601Z,49.28
2023-05-03T17:42:40.909Z,46.11
2023-05-03T17:44:41.308Z,44.30
2023-05-03T17:46:41.592Z,45.14
2023-05-03T17:48:41.908Z,46.55
2023-05-03T17:50:42.194Z,46.29
2023-05-03T17:52:42.496Z,46.64
2023-05-03T17:54:42.812Z,48.90
2023-05-03T17:56:43.258Z,50.53
2023-05-03T17:58:43.710Z,50.05
2023-05-03T18:00:44.113Z,50.98
2023-05-03T18:02:44.572Z,51.31
2023-05-03T18:05:27.037Z,51.03
2023-05-03T18:07:27.373Z,50.65
2023-05-03T18:09:27.615Z,51.78
2023-05-03T18:11:28.035Z,50.47
2023-05-03T18:13:28.291Z,51.81
2023-05-03T18:15:28.595Z,53.63
2023-05-03T18:17:33.843Z,53.55
2023-05-03T18:19:37.002Z,54.05
2023-05-03T18:21:37.519Z,53.47
2023-05-03T18:23:38.119Z,55.80
2023-05-03T18:25:38.456Z,54.91
2023-05-03T18:27:38.746Z,55.35
2023-05-03T18:29:39.169Z,55.15
2023-05-03T18:31:39.494Z,56.08
2023-05-03T18:33:39.827Z,56.79
2023-05-03T18:35:40.210Z,56.79
2023-05-03T18:37:40.523Z,56.92
2023-05-03T18:39:40.842Z,57.93
2023-05-03T18:41:41.220Z,58.47
2023-05-03T18:43:41.503Z,57.65
2023-05-03T18:45:41.776Z,58.39
2023-05-03T18:47:42.156Z,59.10
2023-05-03T18:49:42.562Z,58.72
2023-05-03T18:51:42.898Z,59.23
2023-05-03T18:53:43.224Z,59.36
2023-05-03T18:55:43.592Z,60.17
2023-05-03T18:57:43.887Z,60.17
2023-05-03T18:59:56.719Z,60.60
2023-05-03T19:01:49.394Z,59.69
2023-05-03T19:03:49.640Z,60.10
2023-05-03T19:05:50.064Z,61.04
2023-05-03T19:07:50.405Z,60.74
2023-05-03T19:09:50.661Z,61.47
2023-05-03T19:11:50.968Z,61.27
2023-05-03T19:13:51.255Z,61.78
2023-05-03T19:15:51.571Z,60.46
2023-05-03T19:17:51.940Z,59.62
2023-05-03T19:19:52.208Z,60.13
2023-05-03T19:21:52.545Z,60.02
2023-05-03T19:23:52.864Z,60.02
2023-05-03T19:25:53.224Z,59.21
2023-05-03T19:27:53.452Z,59.72
2023-05-03T19:29:53.786Z,59.41
2023-05-03T19:31:54.100Z,59.21
2023-05-03T19:33:54.703Z,59.62
2023-05-03T19:35:56.139Z,59.31
2023-05-03T19:37:57.744Z,58.50
2023-05-03T19:39:58.033Z,58.80
2023-05-03T19:41:58.335Z,57.89
2023-05-03T19:43:58.712Z,56.87
2023-05-03T19:45:59.017Z,57.68
2023-05-03T19:47:59.611Z,58.60
2023-05-03T19:50:00.052Z,57.08
2023-05-03T19:52:00.415Z,57.10
2023-05-03T19:54:00.694Z,57.00
2023-05-03T19:56:00.972Z,56.98
2023-05-03T19:58:01.343Z,56.90
2023-05-03T20:00:01.918Z,56.29
2023-05-03T20:02:02.406Z,57.00
2023-05-03T20:04:02.973Z,56.52
2023-05-03T20:06:03.327Z,56.12
2023-05-03T20:08:03.650Z,56.62
2023-05-03T20:10:04.062Z,54.79
2023-05-03T20:12:04.531Z,57.74
2023-05-03T20:14:04.840Z,55.71
2023-05-03T20:16:05.137Z,56.21
2023-05-03T20:18:05.428Z,58.38
2023-05-03T20:20:06.027Z,58.07
2023-05-03T20:22:06.381Z,57.77
2023-05-03T20:24:06.747Z,58.51
2023-05-03T20:26:07.079Z,59.66
2023-05-03T20:28:07.364Z,57.42
2023-05-03T20:30:08.011Z,59.35
2023-05-03T20:32:08.567Z,59.25
2023-05-03T20:34:09.021Z,57.92
2023-05-03T20:36:09.307Z,58.03
2023-05-03T20:38:09.684Z,59.55
2023-05-03T20:40:10.575Z,59.55
2023-05-03T20:42:11.193Z,59.48
2023-05-03T20:44:11.880Z,60.09
2023-05-03T20:46:12.281Z,58.67
2023-05-03T20:48:12.748Z,59.58
2023-05-03T20:50:13.092Z,59.78
2023-05-03T20:52:13.366Z,59.07
2023-05-03T20:54:13.724Z,59.58
2023-05-03T20:56:14.028Z,59.99
2023-05-03T20:58:14.333Z,59.58
2023-05-03T21:00:14.622Z,59.51
2023-05-03T21:02:14.948Z,59.71
2023-05-03T21:04:15.288Z,59.20
2023-05-03T21:06:16.279Z,59.91
2023-05-03T21:08:16.648Z,59.51
2023-05-03T21:10:16.940Z,60.02
2023-05-03T21:12:17.359Z,60.02
2023-05-03T21:14:17.672Z,59.20
2023-05-03T21:16:18.067Z,59.81
2023-05-03T21:18:18.327Z,60.86
2023-05-03T21:20:18.662Z,60.55
2023-05-03T21:22:18.990Z,61.16
2023-05-03T21:24:19.315Z,61.27
2023-05-03T21:26:19.609Z,60.55
2023-05-03T21:28:19.965Z,61.37
2023-05-03T21:30:20.267Z,60.76
2023-05-03T21:32:20.582Z,61.57
2023-05-03T21:34:20.938Z,61.30
2023-05-03T21:36:21.250Z,61.30
2023-05-03T21:38:21.562Z,61.80
2023-05-03T21:40:21.882Z,61.50
2023-05-03T21:42:22.168Z,61.09
2023-05-03T21:44:22.506Z,61.19
2023-05-03T21:46:22.859Z,62.04
2023-05-03T21:48:23.293Z,61.40
2023-05-03T21:50:23.626Z,61.50
2023-05-03T21:52:23.954Z,60.89
2023-05-03T21:54:24.201Z,60.07
2023-05-03T21:56:24.549Z,60.89
2023-05-03T21:58:24.805Z,60.78
2023-05-03T22:00:25.111Z,62.11
2023-05-03T22:02:25.668Z,61.83
2023-05-03T22:04:26.010Z,61.43
2023-05-03T22:06:26.299Z,61.12
2023-05-03T22:08:26.654Z,61.73
2023-05-03T22:10:26.988Z,62.11
2023-05-03T22:12:27.337Z,60.48
2023-05-03T22:14:27.677Z,59.66
2023-05-03T22:16:28.023Z,59.97
2023-05-03T22:18:28.330Z,59.66
2023-05-03T22:20:28.604Z,60.28
2023-05-03T22:22:29.005Z,58.95
2023-05-03T22:24:29.252Z,59.33
2023-05-03T22:26:29.556Z,59.66
2023-05-03T22:28:29.910Z,60.07
2023-05-03T22:30:30.197Z,60.48
2023-05-03T22:32:30.552Z,59.56
2023-05-03T22:34:30.868Z,59.87
2023-05-03T22:36:31.138Z,58.41
2023-05-03T22:38:31.437Z,58.01
2023-05-03T22:40:31.773Z,58.31
2023-05-03T22:42:32.060Z,58.08
2023-05-03T22:44:32.399Z,57.57
2023-05-03T22:46:32.656Z,58.28
2023-05-03T22:48:32.952Z,58.28
2023-05-03T22:50:33.290Z,57.67
2023-05-03T22:52:33.617Z,57.37
2023-05-03T22:54:33.953Z,57.98
2023-05-03T22:56:34.247Z,58.18
2023-05-03T22:58:34.566Z,58.08
2023-05-03T23:00:34.865Z,58.21
2023-05-03T23:02:35.200Z,58.21
2023-05-03T23:04:35.559Z,58.72
2023-05-03T23:06:35.889Z,59.12
2023-05-03T23:08:36.263Z,59.33
2023-05-03T23:10:36.615Z,59.03
2023-05-03T23:12:36.955Z,59.23
2023-05-03T23:14:37.286Z,59.87
2023-05-03T23:16:42.591Z,60.48
2023-05-03T23:18:42.908Z,60.28
2023-05-03T23:20:43.209Z,60.51
2023-05-03T23:22:43.530Z,61.22
2023-05-03T23:24:43.809Z,61.46
2023-05-03T23:26:44.121Z,61.90
2023-05-03T23:28:44.496Z,61.49
2023-05-03T23:30:45.370Z,61.69
2023-05-03T23:32:46.284Z,62.81
2023-05-03T23:34:47.033Z,62.95
2023-05-03T23:36:52.221Z,63.25
2023-05-03T23:38:52.538Z,62.84
2023-05-03T23:40:52.898Z,64.37
2023-05-03T23:42:53.182Z,63.89
2023-05-03T23:44:55.083Z,63.28
2023-05-03T23:46:56.195Z,64.00
2023-05-03T23:48:56.470Z,65.73
2023-05-03T23:50:56.832Z,66.25
2023-05-03T23:52:57.100Z,65.43
2023-05-03T23:54:57.557Z,66.35
2023-05-03T23:56:57.815Z,66.45
2023-05-03T23:58:58.129Z,66.17
